createdAt,value
2023-02-23T00:02:08.912Z,100784.39
2023-02-23T00:04:38.487Z,100787.75
2023-02-23T00:07:07.193Z,100783.27
2023-02-23T00:09:38.230Z,100784.39
2023-02-23T00:12:09.924Z,100784.56
2023-02-23T00:14:39.208Z,100785.58
2023-02-23T00:17:15.108Z,100787.83
2023-02-23T00:19:44.546Z,100786.45
2023-02-23T00:22:12.958Z,100782.64
2023-02-23T00:24:43.074Z,100782.09
2023-02-23T00:27:17.907Z,100781.91
2023-02-23T00:29:49.729Z,100779.23
2023-02-23T00:32:22.348Z,100778.69
2023-02-23T00:34:52.643Z,100780.34
2023-02-23T00:37:23.198Z,100775.92
2023-02-23T00:39:52.382Z,100775.41
2023-02-23T00:42:20.943Z,100776.27
2023-02-23T00:44:49.940Z,100777.34
2023-02-23T00:47:18.020Z,100775.70
2023-02-23T00:49:46.097Z,100772.14
2023-02-23T00:52:15.014Z,100770.61
2023-02-23T00:54:43.146Z,100768.44
2023-02-23T00:57:11.326Z,100767.11
2023-02-23T00:59:40.040Z,100761.27
2023-02-23T01:02:08.251Z,100764.25
2023-02-23T01:04:36.361Z,100758.91
2023-02-23T01:07:06.706Z,100759.83
2023-02-23T01:09:35.067Z,100758.22
2023-02-23T01:12:07.891Z,100758.11
2023-02-23T01:14:38.236Z,100760.41
2023-02-23T01:17:07.712Z,100755.38
2023-02-23T01:19:37.696Z,100757.67
2023-02-23T01:22:06.183Z,100757.77
2023-02-23T01:24:34.221Z,100761.59
2023-02-23T01:27:05.567Z,100758.83
2023-02-23T01:29:34.674Z,100756.05
2023-02-23T01:32:04.663Z,100751.90
2023-02-23T01:34:33.188Z,100748.95
2023-02-23T01:37:01.344Z,100749.56
2023-02-23T01:39:30.332Z,100747.13
2023-02-23T01:41:58.740Z,100746.05
2023-02-23T01:44:26.675Z,100746.32
2023-02-23T01:46:57.203Z,100742.89
2023-02-23T01:49:29.731Z,100741.80
2023-02-23T01:52:04.939Z,100740.23
2023-02-23T01:54:38.217Z,100739.85
2023-02-23T01:57:11.647Z,100735.23
2023-02-23T01:59:46.369Z,100732.63
2023-02-23T02:02:16.160Z,100729.52
2023-02-23T02:04:44.982Z,100733.02
2023-02-23T02:07:18.298Z,100732.29
2023-02-23T02:10:22.357Z,100730.86
2023-02-23T02:12:57.070Z,100732.84
2023-02-23T02:15:33.925Z,100731.41
2023-02-23T02:18:58.855Z,100731.86
2023-02-23T02:21:52.122Z,100735.35
2023-02-23T02:24:26.122Z,100730.02
2023-02-23T02:27:15.514Z,100730.65
2023-02-23T02:30:02.827Z,100735.99
2023-02-23T02:33:11.305Z,100733.36
2023-02-23T02:35:41.966Z,100733.46
2023-02-23T02:38:16.650Z,100738.67
2023-02-23T02:40:56.235Z,100733.73
2023-02-23T02:43:31.472Z,100727.98
2023-02-23T02:46:07.566Z,100731.36
2023-02-23T02:49:06.795Z,100731.03
2023-02-23T02:51:49.209Z,100728.80
2023-02-23T02:54:21.134Z,100728.83
2023-02-23T02:56:52.285Z,100727.49
2023-02-23T02:59:40.723Z,100726.43
2023-02-23T03:02:40.004Z,100727.94
2023-02-23T03:05:33.496Z,100728.08
2023-02-23T03:08:35.744Z,100727.38
2023-02-23T03:11:25.946Z,100724.27
2023-02-23T03:14:47.486Z,100723.81
2023-02-23T03:17:57.200Z,100724.52
2023-02-23T03:20:53.651Z,100722.70
2023-02-23T03:23:49.693Z,100721.25
2023-02-23T03:27:01.661Z,100720.59
2023-02-23T03:30:07.430Z,100720.81
2023-02-23T03:33:11.434Z,100717.85
2023-02-23T03:36:10.117Z,100721.33
2023-02-23T03:39:16.002Z,100721.00
2023-02-23T03:42:05.538Z,100722.62
2023-02-23T03:44:58.720Z,100722.90
2023-02-23T03:47:50.442Z,100718.27
2023-02-23T03:50:47.697Z,100722.80
2023-02-23T03:53:41.195Z,100719.86
2023-02-23T03:56:29.913Z,100726.98
2023-02-23T03:59:21.638Z,100726.15
2023-02-23T04:02:10.931Z,100726.59
2023-02-23T04:04:59.521Z,100722.40
2023-02-23T04:07:48.009Z,100724.66
2023-02-23T04:10:35.848Z,100725.02
2023-02-23T04:13:14.658Z,100725.23
2023-02-23T04:16:05.487Z,100723.20
2023-02-23T04:18:36.640Z,100729.98
2023-02-23T04:21:06.355Z,100725.55
2023-02-23T04:23:36.102Z,100727.69
2023-02-23T04:26:05.370Z,100727.80
2023-02-23T04:28:33.499Z,100726.34
2023-02-23T04:31:02.471Z,100723.87
2023-02-23T04:33:31.188Z,100726.68
2023-02-23T04:35:59.353Z,100719.14
2023-02-23T04:38:27.354Z,100715.17
2023-02-23T04:40:55.300Z,100717.82
2023-02-23T04:43:23.361Z,100720.58
2023-02-23T04:45:51.799Z,100719.45
2023-02-23T04:48:19.825Z,100715.40
2023-02-23T04:50:47.883Z,100716.78
2023-02-23T04:53:15.859Z,100712.27
2023-02-23T04:55:44.142Z,100714.20
2023-02-23T04:58:16.237Z,100713.27
2023-02-23T05:00:44.368Z,100711.09
2023-02-23T05:03:13.153Z,100709.98
2023-02-23T05:05:41.474Z,100709.23
2023-02-23T05:08:10.017Z,100709.80
2023-02-23T05:10:40.176Z,100709.66
2023-02-23T05:13:08.749Z,100711.70
2023-02-23T05:15:37.685Z,100709.30
2023-02-23T05:18:05.982Z,100713.95
2023-02-23T05:20:33.969Z,100712.45
2023-02-23T05:23:02.044Z,100710.23
2023-02-23T05:25:30.256Z,100712.63
2023-02-23T05:27:58.493Z,100707.38
2023-02-23T05:30:26.646Z,100707.59
2023-02-23T05:32:54.622Z,100709.91
2023-02-23T05:35:22.904Z,100712.05
2023-02-23T05:37:51.165Z,100708.05
2023-02-23T05:40:19.564Z,100706.25
2023-02-23T05:42:47.720Z,100709.70
2023-02-23T05:45:15.996Z,100713.35
2023-02-23T05:47:44.060Z,100714.24
2023-02-23T05:50:12.424Z,100715.14
2023-02-23T05:52:42.066Z,100714.77
2023-02-23T05:55:12.029Z,100715.12
2023-02-23T05:57:41.467Z,100718.21
2023-02-23T06:00:10.961Z,100720.61
2023-02-23T06:02:40.188Z,100720.66
2023-02-23T06:05:09.897Z,100722.59
2023-02-23T06:07:38.698Z,100716.52
2023-02-23T06:10:08.186Z,100717.64
2023-02-23T06:12:36.547Z,100716.40
2023-02-23T06:15:05.158Z,100717.36
2023-02-23T06:17:33.202Z,100716.80
2023-02-23T06:20:02.508Z,100719.33
2023-02-23T06:22:31.310Z,100718.75
2023-02-23T06:24:59.261Z,100718.49
2023-02-23T06:27:27.292Z,100722.54
2023-02-23T06:29:55.244Z,100720.44
2023-02-23T06:32:23.184Z,100719.95
2023-02-23T06:34:51.644Z,100718.61
2023-02-23T06:37:19.885Z,100717.64
2023-02-23T06:39:48.010Z,100721.11
2023-02-23T06:42:16.991Z,100721.19
2023-02-23T06:44:44.952Z,100718.91
2023-02-23T06:47:12.925Z,100724.09
2023-02-23T06:49:40.886Z,100721.22
2023-02-23T06:52:10.249Z,100719.92
2023-02-23T06:54:40.205Z,100723.55
2023-02-23T06:57:09.290Z,100724.27
2023-02-23T06:59:37.832Z,100722.77
2023-02-23T07:02:06.540Z,100722.67
2023-02-23T07:04:34.743Z,100725.29
2023-02-23T07:07:03.886Z,100725.64
2023-02-23T07:09:32.021Z,100722.09
2023-02-23T07:12:01.414Z,100720.42
2023-02-23T07:14:30.006Z,100722.75
2023-02-23T07:16:58.320Z,100721.52
2023-02-23T07:19:26.698Z,100721.60
2023-02-23T07:21:54.722Z,100720.05
2023-02-23T07:24:23.300Z,100719.83
2023-02-23T07:26:52.392Z,100718.10
2023-02-23T07:29:20.632Z,100716.39
2023-02-23T07:31:50.184Z,100712.44
2023-02-23T07:34:18.366Z,100709.14
2023-02-23T07:36:46.833Z,100710.91
2023-02-23T07:39:14.901Z,100708.45
2023-02-23T07:41:42.872Z,100706.83
2023-02-23T07:44:19.977Z,100708.27
2023-02-23T07:46:47.929Z,100705.96
2023-02-23T07:49:16.001Z,100701.76
2023-02-23T07:51:43.966Z,100700.55
2023-02-23T07:54:12.035Z,100697.27
2023-02-23T07:56:40.031Z,100695.02
2023-02-23T07:59:07.976Z,100694.98
2023-02-23T08:01:36.355Z,100694.45
2023-02-23T08:04:04.632Z,100693.80
2023-02-23T08:06:32.600Z,100690.62
2023-02-23T08:09:02.208Z,100688.73
2023-02-23T08:11:30.378Z,100684.60
2023-02-23T08:14:00.406Z,100685.48
2023-02-23T08:16:30.289Z,100679.04
2023-02-23T08:18:59.814Z,100676.70
2023-02-23T08:21:29.629Z,100675.02
2023-02-23T08:23:59.005Z,100671.15
2023-02-23T08:26:27.135Z,100671.05
2023-02-23T08:28:55.986Z,100669.39
2023-02-23T08:31:25.241Z,100662.38
2023-02-23T08:33:54.075Z,100661.73
2023-02-23T08:36:22.862Z,100656.84
2023-02-23T08:38:51.278Z,100659.61
2023-02-23T08:41:19.722Z,100658.13
2023-02-23T08:43:48.888Z,100654.03
2023-02-23T08:46:18.925Z,100654.91
2023-02-23T08:48:47.214Z,100653.41
2023-02-23T08:51:16.234Z,100648.34
2023-02-23T08:53:44.270Z,100646.84
2023-02-23T08:56:13.463Z,100646.07
2023-02-23T08:58:42.895Z,100639.47
2023-02-23T09:01:19.740Z,100637.64
2023-02-23T09:03:48.641Z,100639.41
2023-02-23T09:06:22.020Z,100636.73
2023-02-23T09:08:50.419Z,100637.13
2023-02-23T09:11:18.784Z,100633.07
2023-02-23T09:13:47.197Z,100631.42
2023-02-23T09:16:16.332Z,100631.45
2023-02-23T09:18:44.863Z,100629.92
2023-02-23T09:21:19.387Z,100629.44
2023-02-23T09:23:51.300Z,100631.69
2023-02-23T09:26:20.623Z,100623.16
2023-02-23T09:28:49.832Z,100624.73
2023-02-23T09:31:22.158Z,100616.89
2023-02-23T09:33:51.403Z,100621.69
2023-02-23T09:36:22.681Z,100619.81
2023-02-23T09:38:55.458Z,100615.73
2023-02-23T09:41:26.288Z,100615.55
2023-02-23T09:44:27.210Z,100613.33
2023-02-23T09:47:41.707Z,100608.21
2023-02-23T09:50:25.554Z,100604.45
2023-02-23T09:53:05.029Z,100604.63
2023-02-23T09:55:33.773Z,100601.89
2023-02-23T09:58:13.065Z,100596.75
2023-02-23T10:00:48.610Z,100592.98
2023-02-23T10:03:23.782Z,100592.46
2023-02-23T10:06:02.113Z,100588.19
2023-02-23T10:08:32.752Z,100588.70
2023-02-23T10:11:45.918Z,100586.13
2023-02-23T10:14:41.963Z,100582.02
2023-02-23T10:17:41.174Z,100579.46
2023-02-23T10:20:35.943Z,100576.55
2023-02-23T10:23:09.713Z,100574.81
2023-02-23T10:25:46.608Z,100577.89
2023-02-23T10:28:21.633Z,100565.05
2023-02-23T10:30:50.834Z,100563.70
2023-02-23T10:33:22.321Z,100564.02
2023-02-23T10:36:07.414Z,100557.86
2023-02-23T10:38:40.789Z,100550.49
2023-02-23T10:41:10.486Z,100547.23
2023-02-23T10:43:39.093Z,100544.30
2023-02-23T10:46:11.338Z,100540.35
2023-02-23T10:48:43.427Z,100530.25
2023-02-23T10:51:28.439Z,100526.62
2023-02-23T10:53:56.572Z,100522.34
2023-02-23T10:56:25.271Z,100517.52
2023-02-23T10:58:56.624Z,100509.30
2023-02-23T11:01:33.586Z,100508.44
2023-02-23T11:04:22.460Z,100500.20
2023-02-23T11:06:53.184Z,100496.41
2023-02-23T11:09:41.183Z,100490.73
2023-02-23T11:12:23.307Z,100483.00
2023-02-23T11:14:54.217Z,100481.78
2023-02-23T11:17:32.514Z,100476.80
2023-02-23T11:20:29.619Z,100474.74
2023-02-23T11:23:03.628Z,100470.77
2023-02-23T11:25:43.450Z,100470.73
2023-02-23T11:28:29.350Z,100464.88
2023-02-23T11:31:02.922Z,100462.98
2023-02-23T11:33:36.002Z,100457.45
2023-02-23T11:36:18.734Z,100454.30
2023-02-23T11:38:48.076Z,100450.95
2023-02-23T11:41:24.496Z,100446.06
2023-02-23T11:43:58.765Z,100442.15
2023-02-23T11:46:30.094Z,100439.29
2023-02-23T11:49:05.853Z,100435.56
2023-02-23T11:51:39.970Z,100430.45
2023-02-23T11:54:26.233Z,100425.80
2023-02-23T11:56:58.244Z,100416.31
2023-02-23T11:59:40.933Z,100418.55
2023-02-23T12:02:25.492Z,100413.03
2023-02-23T12:05:18.907Z,100410.43
2023-02-23T12:08:13.785Z,100401.77
2023-02-23T12:10:53.651Z,100398.17
2023-02-23T12:13:42.739Z,100397.70
2023-02-23T12:16:33.856Z,100394.02
2023-02-23T12:19:10.115Z,100384.30
2023-02-23T12:21:42.283Z,100381.30
2023-02-23T12:24:28.479Z,100381.92
2023-02-23T12:27:06.584Z,100377.39
2023-02-23T12:29:59.649Z,100368.19
2023-02-23T12:32:39.197Z,100364.30
2023-02-23T12:35:18.723Z,100363.57
2023-02-23T12:37:53.445Z,100358.40
2023-02-23T12:40:32.983Z,100357.37
2023-02-23T12:43:51.656Z,100348.61
2023-02-23T12:46:28.967Z,100342.17
2023-02-23T12:49:14.116Z,100339.33
2023-02-23T12:51:53.439Z,100338.59
2023-02-23T12:54:21.717Z,100335.13
2023-02-23T12:57:08.725Z,100333.80
2023-02-23T12:59:46.631Z,100332.96
2023-02-23T13:02:33.765Z,100329.88
2023-02-23T13:05:16.370Z,100328.13
2023-02-23T13:08:20.880Z,100326.52
2023-02-23T13:11:15.041Z,100320.66
2023-02-23T13:14:02.497Z,100316.30
2023-02-23T13:16:43.257Z,100306.92
2023-02-23T13:19:19.460Z,100305.34
2023-02-23T13:21:56.407Z,100299.48
2023-02-23T13:24:30.109Z,100299.52
2023-02-23T13:27:30.795Z,100298.04
2023-02-23T13:29:59.361Z,100294.49
2023-02-23T13:32:32.085Z,100294.66
2023-02-23T13:35:16.341Z,100289.21
2023-02-23T13:37:55.892Z,100285.41
2023-02-23T13:41:26.866Z,100284.16
2023-02-23T13:44:38.352Z,100277.08
2023-02-23T13:48:10.824Z,100268.26
2023-02-23T13:51:14.489Z,100263.01
2023-02-23T13:54:15.571Z,100257.41
2023-02-23T13:57:28.728Z,100255.52
2023-02-23T14:00:24.267Z,100252.23
2023-02-23T14:03:04.648Z,100250.70
2023-02-23T14:05:44.507Z,100245.90
2023-02-23T14:08:35.190Z,100246.52
2023-02-23T14:11:50.802Z,100241.66
2023-02-23T14:14:50.027Z,100235.48
2023-02-23T14:17:28.134Z,100234.30
2023-02-23T14:20:24.303Z,100229.31
2023-02-23T14:23:06.269Z,100224.34
2023-02-23T14:25:34.637Z,100221.96
2023-02-23T14:28:23.061Z,100223.20
2023-02-23T14:31:30.314Z,100220.51
2023-02-23T14:34:36.167Z,100221.06
2023-02-23T14:38:47.616Z,100215.98
2023-02-23T14:41:58.544Z,100210.66
2023-02-23T14:44:32.349Z,100209.88
2023-02-23T14:47:09.224Z,100203.42
2023-02-23T14:49:40.713Z,100198.13
2023-02-23T14:52:19.953Z,100191.16
2023-02-23T14:54:48.656Z,100189.30
2023-02-23T14:57:23.780Z,100184.05
2023-02-23T15:00:07.801Z,100187.22
2023-02-23T15:02:45.839Z,100186.64
2023-02-23T15:05:25.468Z,100185.00
2023-02-23T15:07:54.684Z,100184.02
2023-02-23T15:10:29.242Z,100182.52
2023-02-23T15:12:58.578Z,100177.09
2023-02-23T15:15:27.558Z,100174.27
2023-02-23T15:18:01.420Z,100171.46
2023-02-23T15:23:04.133Z,100164.67
2023-02-23T15:25:40.665Z,100158.61
2023-02-23T15:28:29.801Z,100159.57
2023-02-23T15:31:01.536Z,100162.77
2023-02-23T15:33:30.474Z,100157.45
2023-02-23T15:36:19.718Z,100154.30
2023-02-23T15:38:51.002Z,100152.21
2023-02-23T15:41:36.826Z,100149.23
2023-02-23T15:44:27.538Z,100143.67
2023-02-23T15:47:00.571Z,100140.01
2023-02-23T15:49:42.122Z,100140.26
2023-02-23T15:52:17.828Z,100138.64
2023-02-23T15:55:02.621Z,100138.92
2023-02-23T15:57:44.765Z,100143.32
2023-02-23T16:00:39.302Z,100138.09
2023-02-23T16:03:21.701Z,100139.75
2023-02-23T16:06:05.829Z,100137.44
2023-02-23T16:08:36.881Z,100133.59
2023-02-23T16:11:19.791Z,100135.20
2023-02-23T16:13:51.548Z,100130.31
2023-02-23T16:16:25.372Z,100128.69
2023-02-23T16:19:01.497Z,100124.98
2023-02-23T16:21:31.420Z,100125.38
2023-02-23T16:24:06.281Z,100127.48
2023-02-23T16:26:57.160Z,100129.08
2023-02-23T16:29:31.170Z,100129.15
2023-02-23T16:32:02.953Z,100130.73
2023-02-23T16:34:49.380Z,100131.48
2023-02-23T16:37:23.203Z,100123.84
2023-02-23T16:39:51.883Z,100119.95
2023-02-23T16:42:33.299Z,100124.61
2023-02-23T16:45:01.648Z,100122.59
2023-02-23T16:47:48.327Z,100123.48
2023-02-23T16:50:23.152Z,100124.36
2023-02-23T16:52:53.267Z,100122.98
2023-02-23T16:55:27.603Z,100118.73
2023-02-23T16:58:02.745Z,100116.55
2023-02-23T17:00:32.979Z,100115.20
2023-02-23T17:03:01.259Z,100112.48
2023-02-23T17:05:30.459Z,100108.59
2023-02-23T17:07:59.301Z,100106.90
2023-02-23T17:10:33.314Z,100101.63
2023-02-23T17:13:05.356Z,100101.65
2023-02-23T17:15:39.140Z,100099.95
2023-02-23T17:18:07.325Z,100094.83
2023-02-23T17:20:35.408Z,100091.42
2023-02-23T17:23:04.178Z,100088.52
2023-02-23T17:25:33.664Z,100084.23
2023-02-23T17:28:02.593Z,100081.33
2023-02-23T17:30:31.466Z,100076.55
2023-02-23T17:32:59.763Z,100078.25
2023-02-23T17:35:28.695Z,100074.50
2023-02-23T17:37:56.708Z,100069.73
2023-02-23T17:40:29.754Z,100066.98
2023-02-23T17:43:00.392Z,100066.65
2023-02-23T17:45:29.176Z,100062.39
2023-02-23T17:47:58.372Z,100055.73
2023-02-23T17:50:29.835Z,100052.15
2023-02-23T17:52:58.142Z,100051.98
2023-02-23T17:55:26.289Z,100046.70
2023-02-23T17:57:54.349Z,100044.48
2023-02-23T18:00:22.547Z,100040.89
2023-02-23T18:02:50.810Z,100036.96
2023-02-23T18:05:19.209Z,100034.58
2023-02-23T18:07:49.020Z,100031.82
2023-02-23T18:10:17.570Z,100028.92
2023-02-23T18:12:45.748Z,100021.39
2023-02-23T18:15:13.939Z,100022.05
2023-02-23T18:17:42.081Z,100019.48
2023-02-23T18:20:15.326Z,100015.19
2023-02-23T18:22:44.680Z,100013.80
2023-02-23T18:25:25.765Z,100009.17
2023-02-23T18:27:55.224Z,100007.96
2023-02-23T18:30:24.951Z,100002.84
2023-02-23T18:33:00.627Z,99998.73
2023-02-23T18:35:37.929Z,99992.41
2023-02-23T18:38:10.377Z,99991.06
2023-02-23T18:40:40.000Z,99988.18
2023-02-23T18:43:09.345Z,99988.36
2023-02-23T18:45:37.709Z,99985.12
2023-02-23T18:48:10.454Z,99986.33
2023-02-23T18:50:38.515Z,99980.86
2023-02-23T18:53:09.187Z,99977.11
2023-02-23T18:55:38.585Z,99970.12
2023-02-23T18:58:06.631Z,99967.05
2023-02-23T19:00:40.372Z,99963.47
2023-02-23T19:03:10.404Z,99958.17
2023-02-23T19:05:46.062Z,99956.98
2023-02-23T19:08:16.933Z,99949.64
2023-02-23T19:10:45.214Z,99944.14
2023-02-23T19:13:13.377Z,99937.30
2023-02-23T19:15:41.760Z,99937.45
2023-02-23T19:18:09.826Z,99935.58
2023-02-23T19:20:37.796Z,99923.62
2023-02-23T19:23:05.866Z,99922.92
2023-02-23T19:25:33.934Z,99917.80
2023-02-23T19:28:02.512Z,99910.29
2023-02-23T19:30:30.687Z,99910.64
2023-02-23T19:33:01.007Z,99905.88
2023-02-23T19:35:29.302Z,99903.31
2023-02-23T19:37:58.493Z,99898.38
2023-02-23T19:40:29.254Z,99899.77
2023-02-23T19:42:58.124Z,99894.14
2023-02-23T19:45:30.498Z,99889.71
2023-02-23T19:48:10.233Z,99891.10
2023-02-23T19:50:39.642Z,99884.46
2023-02-23T19:53:07.709Z,99882.77
2023-02-23T19:55:36.292Z,99883.78
2023-02-23T19:58:04.566Z,99881.73
2023-02-23T20:00:32.643Z,99874.91
2023-02-23T20:03:06.510Z,99871.19
2023-02-23T20:05:46.298Z,99870.34
2023-02-23T20:08:19.424Z,99868.14
2023-02-23T20:10:47.820Z,99864.42
2023-02-23T20:13:16.847Z,99864.61
2023-02-23T20:15:46.281Z,99864.63
2023-02-23T20:18:14.322Z,99859.88
2023-02-23T20:20:42.394Z,99861.08
2023-02-23T20:23:10.550Z,99855.98
2023-02-23T20:25:41.263Z,99854.63
2023-02-23T20:28:09.510Z,99852.95
2023-02-23T20:30:37.841Z,99844.11
2023-02-23T20:33:10.886Z,99840.05
2023-02-23T20:35:39.669Z,99841.61
2023-02-23T20:38:08.215Z,99837.70
2023-02-23T20:40:36.298Z,99830.71
2023-02-23T20:43:04.468Z,99829.36
2023-02-23T20:45:32.928Z,99826.14
2023-02-23T20:48:05.076Z,99822.39
2023-02-23T20:50:34.319Z,99822.91
2023-02-23T20:53:05.253Z,99817.45
2023-02-23T20:55:33.205Z,99812.86
2023-02-23T20:58:01.277Z,99808.95
2023-02-23T21:00:32.034Z,99802.48
2023-02-23T21:03:03.028Z,99797.89
2023-02-23T21:05:38.094Z,99791.61
2023-02-23T21:08:08.824Z,99791.63
2023-02-23T21:10:39.440Z,99787.38
2023-02-23T21:13:11.128Z,99779.73
2023-02-23T21:15:40.982Z,99777.89
2023-02-23T21:18:10.071Z,99775.52
2023-02-23T21:20:39.866Z,99773.48
2023-02-23T21:23:07.905Z,99771.27
2023-02-23T21:25:36.187Z,99771.27
2023-02-23T21:28:04.349Z,99765.83
2023-02-23T21:30:32.416Z,99766.52
2023-02-23T21:33:00.681Z,99762.60
2023-02-23T21:35:28.884Z,99758.52
2023-02-23T21:37:57.374Z,99759.04
2023-02-23T21:40:25.558Z,99754.09
2023-02-23T21:42:53.692Z,99750.85
2023-02-23T21:45:21.884Z,99746.75
2023-02-23T21:47:50.159Z,99742.98
2023-02-23T21:50:19.902Z,99745.37
2023-02-23T21:52:48.946Z,99739.89
2023-02-23T21:55:21.774Z,99733.55
2023-02-23T21:57:52.093Z,99729.09
2023-02-23T22:00:21.938Z,99722.91
2023-02-23T22:02:51.705Z,99717.59
2023-02-23T22:05:20.787Z,99715.02
2023-02-23T22:07:51.923Z,99711.27
2023-02-23T22:10:22.540Z,99704.28
2023-02-23T22:12:56.212Z,99703.10
2023-02-23T22:15:27.924Z,99698.66
2023-02-23T22:17:56.707Z,99694.06
2023-02-23T22:20:26.295Z,99687.59
2023-02-23T22:22:54.272Z,99684.03
2023-02-23T22:25:22.447Z,99682.50
2023-02-23T22:27:50.522Z,99676.38
2023-02-23T22:30:22.897Z,99670.08
2023-02-23T22:32:51.330Z,99667.70
2023-02-23T22:35:19.892Z,99664.27
2023-02-23T22:37:48.225Z,99664.26
2023-02-23T22:40:17.050Z,99659.30
2023-02-23T22:42:49.693Z,99656.89
2023-02-23T22:45:19.024Z,99649.19
2023-02-23T22:47:47.268Z,99645.59
2023-02-23T22:50:19.510Z,99640.98
2023-02-23T22:52:47.619Z,99637.39
2023-02-23T22:55:15.786Z,99640.11
2023-02-23T22:57:44.175Z,99638.05
2023-02-23T23:00:16.509Z,99631.93
2023-02-23T23:02:44.760Z,99630.77
2023-02-23T23:05:14.132Z,99627.04
2023-02-23T23:07:43.201Z,99622.96
2023-02-23T23:10:12.426Z,99618.91
2023-02-23T23:12:40.572Z,99615.52
2023-02-23T23:15:15.098Z,99616.05
2023-02-23T23:17:48.376Z,99611.98
2023-02-23T23:20:25.934Z,99608.24
2023-02-23T23:22:54.968Z,99601.95
2023-02-23T23:25:23.381Z,99594.95
2023-02-23T23:27:54.700Z,99592.05
2023-02-23T23:30:29.639Z,99591.17
2023-02-23T23:32:58.231Z,99586.21
2023-02-23T23:35:26.386Z,99583.64
2023-02-23T23:37:54.483Z,99581.23
2023-02-23T23:40:24.678Z,99577.96
2023-02-23T23:42:53.366Z,99576.23
2023-02-23T23:45:24.576Z,99571.77
2023-02-23T23:47:52.896Z,99569.02
2023-02-23T23:50:26.919Z,99567.60
2023-02-23T23:52:57.273Z,99562.80
2023-02-23T23:55:31.260Z,99558.83
2023-02-23T23:58:00.560Z,99552.66
